Latest Weather Observations for Tatura

IDV60801

Issued at 5:02 pm EDT Friday 27 February 2015 (issued every 30 minutes, with the page automatically refreshed every 10 minutes)

About weather observations | Map of weather stations | Latest weather observations for VIC | Other Formats
Station Details ID: 081049 Name: TATURA INST SUSTAINABLE AG Lat: -36.44 Lon: 145.27 Height: 114.0 m
Data from the previous 72 hours. | See also: Recent months at Tatura
Date/Time
EDT
Temp
°C
App
Temp
°C
Dew
Point
Rel
Hum
%
Delta-T
°C
Wind Press
QNH
hPa
Press
MSL
hPa
Rain
since 9 am
mm
Dir
 
Spd
km/h
Gust
km/h
Spd
kts
Gust
kts
27/05:00pm 28.6 26.4 9.3 30 10.8 S 11 19 6 10 - - 0.0
27/04:30pm 28.5 26.6 9.2 30 10.7 S 9 19 5 10 - - 0.0
27/04:00pm 28.3 25.5 10.0 32 10.3 S 15 22 8 12 - - 0.0
27/03:30pm 27.9 25.3 9.2 31 10.4 SSW 13 20 7 11 - - 0.0
27/03:00pm 27.4 24.1 9.7 33 9.9 SW 17 24 9 13 - - 0.0
27/02:30pm 27.1 24.9 9.5 33 9.8 SW 11 20 6 11 - - 0.0
27/02:00pm 26.4 24.2 9.3 34 9.4 SSW 11 20 6 11 - - 0.0
27/01:30pm 26.4 23.5 9.7 35 9.3 WNW 15 22 8 12 - - 0.0
27/01:00pm 26.0 24.3 9.8 36 9.0 WNW 9 20 5 11 - - 0.0
27/12:30pm 24.6 22.6 10.1 40 8.0 W 11 19 6 10 - - 0.0
27/12:00pm 24.4 22.1 10.3 41 7.8 W 13 24 7 13 - - 0.0
27/11:30am 24.3 22.0 11.6 45 7.2 W 15 28 8 15 - - 0.0
27/11:00am 22.9 21.6 11.3 48 6.5 SSW 9 13 5 7 - - 0.0
27/10:30am 22.0 21.9 13.4 58 5.0 SSW 6 11 3 6 - - 0.0
27/10:00am 20.6 19.9 13.1 62 4.3 S 9 17 5 9 - - 0.0
27/09:30am 19.5 18.6 13.7 69 3.3 S 11 17 6 9 - - 0.0
27/09:00am 17.9 16.5 13.4 75 2.6 S 13 19 7 10 - - 0.0
27/08:30am 16.3 15.2 13.2 82 1.7 SSE 11 17 6 9 - - 0.0
27/08:00am 14.9 14.1 12.8 87 1.2 S 9 13 5 7 - - 0.0
27/07:30am 13.6 12.6 12.2 91 0.8 S 9 11 5 6 - - 0.0
27/07:00am 13.6 12.9 12.0 90 0.9 S 7 11 4 6 - - 0.0
27/06:30am 14.2 13.2 12.2 88 1.1 SSE 9 13 5 7 - - 0.0
27/06:00am 14.6 13.2 12.3 86 1.3 S 11 15 6 8 - - 0.0
27/05:30am 14.9 13.6 12.6 86 1.3 S 11 19 6 10 - - 0.0
27/05:00am 14.9 14.1 12.8 87 1.2 S 9 15 5 8 - - 0.0
27/04:30am 15.2 13.6 12.9 86 1.3 SSW 13 17 7 9 - - 0.0
27/04:00am 15.5 14.0 13.2 86 1.3 SSW 13 17 7 9 - - 0.0
27/03:30am 15.1 14.4 13.1 88 1.1 S 9 11 5 6 - - 0.0
27/03:00am 16.0 15.4 13.5 85 1.4 S 9 17 5 9 - - 0.0
27/02:30am 16.2 15.6 13.5 84 1.5 SSW 9 15 5 8 - - 0.0
27/02:00am 16.7 16.1 13.4 81 1.9 S 9 13 5 7 - - 0.0
27/01:30am 17.3 16.4 13.6 79 2.1 S 11 17 6 9 - - 0.0
27/01:00am 17.5 16.5 13.4 77 2.3 S 11 17 6 9 - - 0.0
27/12:30am 18.3 16.8 13.0 71 3.0 S 13 17 7 9 - - 0.0
27/12:00am 19.2 17.8 12.2 64 3.9 SSE 11 15 6 8 - - 0.0
 
Date/Time
EDT
Temp
°C
App
Temp
°C
Dew
Point
Rel
Hum
%
Delta-T
°C
Wind Press
QNH
hPa
Press
MSL
hPa
Rain
since 9 am
mm
Dir
 
Spd
km/h
Gust
km/h
Spd
kts
Gust
kts
26/11:30pm 20.3 17.8 12.3 60 4.5 SSE 17 22 9 12 - - 0.0
26/11:00pm 20.8 18.6 12.2 58 4.8 SSE 15 24 8 13 - - 0.0
26/10:30pm 21.5 19.1 12.6 57 5.1 SSE 17 20 9 11 - - 0.0
26/10:00pm 22.1 20.2 12.9 56 5.3 SSE 15 20 8 11 - - 0.0
26/09:30pm 22.8 21.3 13.0 54 5.7 SSE 13 20 7 11 - - 0.0
26/09:00pm 23.2 22.1 13.1 53 5.9 SSE 11 15 6 8 - - 0.0
26/08:30pm 24.3 22.8 13.2 50 6.5 S 13 19 7 10 - - 0.0
26/08:00pm 25.1 24.0 13.0 47 7.1 S 11 15 6 8 - - 0.0
26/07:30pm 26.4 24.3 12.5 42 8.1 SSE 15 22 8 12 - - 0.0
26/07:00pm 27.3 24.9 12.5 40 8.6 SSE 17 22 9 12 - - 0.0
26/06:30pm 27.9 25.0 12.3 38 9.1 SSE 19 24 10 13 - - 0.0
26/06:00pm 28.7 26.5 12.2 36 9.7 SSE 15 22 8 12 - - 0.0
26/05:30pm 28.8 25.6 11.4 34 10.1 S 19 24 10 13 - - 0.0
26/05:00pm 29.0 26.9 12.4 36 9.8 SSE 15 24 8 13 - - 0.0
26/04:30pm 28.8 28.1 13.1 38 9.3 SE 9 20 5 11 - - 0.0
26/04:00pm 28.7 28.1 13.4 39 9.1 S 9 19 5 10 - - 0.0
26/03:30pm 28.2 27.7 13.7 41 8.7 SW 9 20 5 11 - - 0.0
26/03:00pm 27.7 25.8 12.9 40 8.7 SSW 15 22 8 12 - - 0.0
26/02:30pm 27.1 26.2 13.8 44 7.9 S 11 20 6 11 - - 0.0
26/02:00pm 26.7 26.4 14.5 47 7.3 S 9 17 5 9 - - 0.0
26/01:30pm 25.9 26.3 15.3 52 6.4 SE 7 13 4 7 - - 0.0
26/01:00pm 24.7 24.4 14.5 53 6.1 SE 9 15 5 8 - - 0.0
26/12:30pm 24.0 23.4 14.7 56 5.6 SE 11 19 6 10 - - 0.0
26/12:00pm 23.7 24.6 16.5 64 4.4 ESE 7 15 4 8 - - 0.0
26/11:30am 21.7 21.5 14.6 64 4.2 ESE 9 13 5 7 - - 0.0
26/11:00am 21.2 20.3 14.8 67 3.8 E 13 19 7 10 - - 0.0
26/10:30am 20.5 19.9 14.6 69 3.5 E 11 19 6 10 - - 0.0
26/10:00am 19.8 19.6 14.8 73 2.9 ESE 9 15 5 8 - - 0.0
26/09:30am 19.3 20.3 15.4 78 2.3 SE 4 9 2 5 - - 0.0
26/09:00am 18.5 18.8 15.0 80 2.1 ESE 7 13 4 7 - - 0.0
26/08:30am 17.7 17.5 14.8 83 1.7 ESE 9 13 5 7 - - 0.0
26/08:00am 16.9 17.0 14.5 86 1.4 SE 7 11 4 6 - - 0.0
26/07:30am 15.9 15.5 14.1 89 1.0 SE 9 9 5 5 - - 0.0
26/07:00am 14.9 13.9 13.3 90 0.9 SSE 11 13 6 7 - - 0.0
26/06:30am 14.6 13.8 13.0 90 0.9 SSE 9 11 5 6 - - 0.0
26/06:00am 14.3 13.8 12.7 90 0.9 SSE 7 9 4 5 - - 0.0
26/05:30am 14.6 13.8 12.8 89 1.0 SSE 9 11 5 6 - - 0.0
26/05:00am 14.5 13.6 12.7 89 1.0 SSE 9 11 5 6 - - 0.0
26/04:30am 15.0 14.9 13.2 89 1.0 SSE 6 7 3 4 - - 0.0
26/04:00am 15.7 16.8 13.4 86 1.3 CALM 0 0 0 0 - - 0.0
26/03:30am 16.8 16.6 13.7 82 1.8 SE 7 9 4 5 - - 0.0
26/03:00am 16.3 15.7 13.6 84 1.5 SE 9 11 5 6 - - 0.0
26/02:30am 15.3 15.5 13.1 87 1.2 W 4 9 2 5 - - 0.0
26/02:00am 16.1 17.2 13.4 84 1.5 CALM 0 0 0 0 - - 0.0
26/01:30am 17.9 17.6 13.4 75 2.6 ESE 7 11 4 6 - - 0.0
26/01:00am 18.4 18.0 13.0 71 3.1 SSE 7 9 4 5 - - 0.0
26/12:30am 18.5 17.4 12.0 66 3.6 WSW 9 19 5 10 - - 0.0
26/12:00am 17.1 18.3 13.8 81 1.9 CALM 0 0 0 0 - - 0.0
 
Date/Time
EDT
Temp
°C
App
Temp
°C
Dew
Point
Rel
Hum
%
Delta-T
°C
Wind Press
QNH
hPa
Press
MSL
hPa
Rain
since 9 am
mm
Dir
 
Spd
km/h
Gust
km/h
Spd
kts
Gust
kts
25/11:30pm 18.0 19.1 13.5 75 2.6 CALM 0 0 0 0 - - 0.0
25/11:00pm 19.3 19.2 13.9 71 3.1 WNW 7 9 4 5 - - 0.0
25/10:30pm 18.7 20.3 14.8 78 2.3 CALM 0 0 0 0 - - 0.0
25/10:00pm 19.4 21.1 15.1 76 2.5 CALM 0 0 0 0 - - 0.0
25/09:30pm 20.6 22.4 15.4 72 3.1 CALM 0 0 0 0 - - 0.0
25/09:00pm 21.5 21.4 13.4 60 4.7 SSW 6 7 3 4 - - 0.0
25/08:30pm 23.8 23.7 13.9 54 5.8 S 7 9 4 5 - - 0.0
25/08:00pm 25.6 27.0 14.4 50 6.7 CALM 0 0 0 0 - - 0.0
25/07:30pm 27.5 28.2 12.3 39 8.9 CALM 0 0 0 0 - - 0.0
25/07:00pm 28.2 28.5 12.1 37 9.4 WSW 2 7 1 4 - - 0.0
25/06:30pm 28.7 27.9 11.7 35 9.9 N 7 11 4 6 - - 0.0
25/06:00pm 28.7 27.3 10.8 33 10.2 NNE 9 13 5 7 - - 0.0
25/05:30pm 28.8 27.6 12.7 37 9.5 NE 11 15 6 8 - - 0.0
25/05:00pm 28.7 27.1 11.7 35 9.9 N 11 17 6 9 - - 0.0
25/04:30pm 28.4 27.5 12.7 38 9.2 NE 9 15 5 8 - - 0.0
25/04:00pm 28.6 27.2 12.1 36 9.6 NNE 11 22 6 12 - - 0.0
25/03:30pm 27.6 27.3 12.8 40 8.7 N 6 19 3 10 - - 0.0
25/03:00pm 27.3 25.6 13.6 43 8.1 NE 15 22 8 12 - - 0.0
25/02:30pm 27.6 27.4 15.6 48 7.4 NE 11 22 6 12 - - 0.0
25/02:00pm 25.8 25.6 14.6 50 6.7 N 9 17 5 9 - - 0.0
25/01:30pm 26.1 25.8 15.5 52 6.5 N 11 20 6 11 - - 0.0
25/01:00pm 25.2 23.7 15.2 54 6.0 NNE 17 28 9 15 - - 0.0
25/12:30pm 24.9 23.2 14.7 53 6.1 N 17 28 9 15 - - 0.0
25/12:00pm 23.9 21.7 14.9 57 5.4 NE 20 28 11 15 - - 0.0
25/11:30am 23.8 21.6 14.8 57 5.4 NNE 20 32 11 17 - - 0.0
25/11:00am 22.7 20.9 14.5 60 4.9 NE 17 22 9 12 - - 0.0
25/10:30am 21.0 18.9 13.7 63 4.2 NNE 17 24 9 13 - - 0.0
25/10:00am 20.6 19.3 13.6 64 4.0 NE 13 19 7 10 - - 0.0
25/09:30am 20.4 19.1 13.6 65 3.9 ENE 13 19 7 10 - - 0.0
25/09:00am 18.3 17.6 13.2 72 2.9 E 9 13 5 7 - - 0.0
25/08:30am 16.9 15.9 12.4 75 2.5 ESE 9 13 5 7 - - 0.0
25/08:00am 14.5 13.4 12.0 85 1.4 SSE 9 11 5 6 - - 0.0
25/07:30am 13.0 11.7 11.4 90 0.9 SSE 9 11 5 6 - - 0.0
25/07:00am 12.8 11.5 11.2 90 0.8 SSE 9 15 5 8 - - 0.0
25/06:30am 12.8 11.2 11.4 91 0.7 SSE 11 17 6 9 - - 0.0
25/06:00am 12.8 11.5 11.2 90 0.8 S 9 11 5 6 - - 0.0
25/05:30am 13.1 11.4 11.2 88 1.0 S 11 13 6 7 - - 0.0
25/05:00am 13.4 11.7 11.1 86 1.2 S 11 13 6 7 - - 0.0
25/04:30am 13.7 12.0 11.2 85 1.3 S 11 13 6 7 - - 0.0
25/04:00am 13.6 12.2 10.9 84 1.4 S 9 13 5 7 - - 0.0
25/03:30am 13.8 12.0 11.0 83 1.5 S 11 15 6 8 - - 0.0
25/03:00am 14.0 12.6 11.0 82 1.6 S 9 13 5 7 - - 0.0
25/02:30am 14.4 12.3 11.0 80 1.8 S 13 17 7 9 - - 0.0
25/02:00am 14.5 12.3 10.9 79 1.9 S 13 19 7 10 - - 0.0
25/01:30am 14.8 12.2 10.8 77 2.1 S 15 22 8 12 - - 0.0
25/01:00am 15.1 11.7 10.7 75 2.3 S 19 24 10 13 - - 0.0
25/12:30am 15.3 11.9 10.5 73 2.5 S 19 30 10 16 - - 0.0
25/12:00am 15.5 11.9 10.5 72 2.7 S 20 30 11 16 - - 0.0
 
Date/Time
EDT
Temp
°C
App
Temp
°C
Dew
Point
Rel
Hum
%
Delta-T
°C
Wind Press
QNH
hPa
Press
MSL
hPa
Rain
since 9 am
mm
Dir
 
Spd
km/h
Gust
km/h
Spd
kts
Gust
kts
24/11:30pm 15.5 11.8 10.1 70 2.8 S 20 35 11 19 - - 0.0
24/11:00pm 15.8 12.0 9.9 68 3.1 S 20 30 11 16 - - 0.0
24/10:30pm 16.1 12.4 9.5 65 3.4 S 19 30 10 16 - - 0.0
24/10:00pm 16.5 12.2 9.2 62 3.8 S 22 35 12 19 - - 0.0
24/09:30pm 17.0 13.0 8.9 59 4.2 S 20 30 11 16 - - 0.0
24/09:00pm 17.7 13.8 8.6 55 4.7 S 19 28 10 15 - - 0.0
24/08:30pm 18.9 14.8 8.6 51 5.4 S 20 32 11 17 - - 0.0
24/08:00pm 19.8 15.6 8.2 47 6.0 S 20 26 11 14 - - 0.0
24/07:30pm 21.1 16.6 8.4 44 6.7 S 22 32 12 17 - - 0.0
24/07:00pm 22.3 17.8 8.4 41 7.4 S 22 35 12 19 - - 0.0
24/06:30pm 22.3 16.9 8.1 40 7.5 S 26 35 14 19 - - 0.0
24/06:00pm 23.1 18.7 9.1 41 7.6 S 22 33 12 18 - - 0.0
24/05:30pm 23.2 18.8 8.9 40 7.7 S 22 35 12 19 - - 0.0

Other Formats:

Comma delimited format used in spreadsheet applications
http://www.bom.gov.au/fwo/IDV60801/IDV60801.95836.axf

JavaScript Object Notation format (JSON) in row-major order
http://www.bom.gov.au/fwo/IDV60801/IDV60801.95836.json